Time;durP1;ratioP1;P1;durP2;ratioP2;P2;SDS_P1;SDS_P2;PMS_P1;PMS_P2;Temp;Humidity;BMP_temperature;BMP_pressure;BME280_temperature;BME280_humidity;BME280_pressure;Samples;Min_cycle;Max_cycle;Signal;HPM_P1;HPM_P2
2023/12/14 00:00:14;;;;;;;44.43;24.40;;;9.80;99.90;;;;;;5064460;28;20830;-63
2023/12/14 00:02:40;;;;;;;47.70;24.83;;;9.80;99.90;;;;;;5073426;28;20467;-64
2023/12/14 00:05:09;;;;;;;40.70;24.10;;;9.80;99.90;;;;;;5074545;28;20425;-63
2023/12/14 00:07:36;;;;;;;41.77;24.70;;;9.80;99.90;;;;;;5077580;28;20449;-63
2023/12/14 00:10:03;;;;;;;43.23;25.77;;;9.80;99.90;;;;;;5077310;28;20448;-63
2023/12/14 00:12:29;;;;;;;42.80;27.10;;;9.80;99.90;;;;;;5075125;28;20884;-63
2023/12/14 00:14:56;;;;;;;45.27;26.73;;;9.80;99.90;;;;;;5073710;28;20483;-63
2023/12/14 00:17:23;;;;;;;45.23;26.27;;;9.80;99.90;;;;;;5073609;28;20930;-63
2023/12/14 00:19:49;;;;;;;38.17;24.77;;;9.90;99.90;;;;;;5073553;28;20896;-64
2023/12/14 00:22:17;;;;;;;45.63;26.60;;;9.90;99.90;;;;;;5073548;28;20548;-64
2023/12/14 00:24:44;;;;;;;46.80;29.33;;;9.90;99.90;;;;;;5074254;28;20445;-64
2023/12/14 00:27:11;;;;;;;42.27;27.17;;;9.90;99.90;;;;;;5073492;28;20812;-63
2023/12/14 00:29:37;;;;;;;45.70;28.80;;;9.90;99.90;;;;;;5073349;28;20444;-64
2023/12/14 00:32:05;;;;;;;45.50;26.10;;;9.90;99.90;;;;;;5072539;28;20471;-64
2023/12/14 00:34:31;;;;;;;44.13;28.10;;;10.00;99.90;;;;;;5073616;28;20480;-64
2023/12/14 00:36:58;;;;;;;42.60;26.87;;;9.90;99.90;;;;;;5073353;28;20437;-64
2023/12/14 00:39:26;;;;;;;44.63;26.40;;;9.90;99.90;;;;;;5073492;28;20448;-64
2023/12/14 00:41:53;;;;;;;51.93;27.53;;;9.90;99.90;;;;;;5073311;28;20967;-64
2023/12/14 00:44:19;;;;;;;37.33;24.73;;;9.90;99.90;;;;;;5073577;28;20446;-64
2023/12/14 00:46:46;;;;;;;44.17;26.17;;;9.90;99.90;;;;;;5073399;28;20449;-64
2023/12/14 00:49:13;;;;;;;40.53;25.13;;;9.90;99.90;;;;;;5073468;28;20437;-64
2023/12/14 00:51:40;;;;;;;41.73;23.47;;;9.90;99.90;;;;;;5073675;28;20471;-64
2023/12/14 00:54:06;;;;;;;35.63;23.20;;;9.90;99.90;;;;;;5073647;28;20479;-64
2023/12/14 00:56:34;;;;;;;38.33;20.97;;;9.90;99.90;;;;;;5073488;28;20444;-64
2023/12/14 00:59:01;;;;;;;38.20;22.03;;;9.90;99.90;;;;;;5072930;28;20449;-64
2023/12/14 01:01:28;;;;;;;39.90;20.40;;;9.90;99.90;;;;;;5073212;28;20464;-64
2023/12/14 01:03:54;;;;;;;38.40;20.57;;;9.90;99.90;;;;;;5073509;28;20445;-63
2023/12/14 01:06:21;;;;;;;40.17;20.83;;;9.90;99.90;;;;;;5074870;28;20448;-64
2023/12/14 01:08:48;;;;;;;37.03;20.40;;;9.90;99.90;;;;;;5075402;28;20445;-64
2023/12/14 01:11:15;;;;;;;30.13;18.10;;;9.90;99.90;;;;;;5074842;28;20503;-64
2023/12/14 01:13:43;;;;;;;33.80;20.67;;;9.90;99.90;;;;;;5074500;28;20459;-64
2023/12/14 01:16:10;;;;;;;35.97;17.13;;;9.90;99.90;;;;;;5074073;28;20449;-63
2023/12/14 01:18:36;;;;;;;30.90;17.20;;;9.90;99.90;;;;;;5074152;28;20455;-63
2023/12/14 01:21:04;;;;;;;35.83;19.80;;;9.90;99.90;;;;;;5074356;28;20460;-64
2023/12/14 01:23:31;;;;;;;33.30;17.67;;;9.90;99.90;;;;;;5072988;28;20855;-64
2023/12/14 01:25:57;;;;;;;32.93;18.23;;;9.90;99.90;;;;;;5073175;28;20464;-64
2023/12/14 01:28:24;;;;;;;27.63;17.40;;;10.00;99.90;;;;;;5073235;28;20467;-64
2023/12/14 01:30:53;;;;;;;34.60;18.10;;;10.00;99.90;;;;;;5073131;28;20461;-64
2023/12/14 01:33:20;;;;;;;33.80;18.30;;;10.00;99.90;;;;;;5073031;28;20447;-64
2023/12/14 01:35:46;;;;;;;34.93;18.80;;;10.00;99.90;;;;;;5072780;28;20517;-64
2023/12/14 01:38:16;;;;;;;32.20;17.90;;;9.90;99.90;;;;;;5072673;28;20445;-65
2023/12/14 01:40:42;;;;;;;28.17;17.07;;;10.00;99.90;;;;;;5072746;28;20500;-64
2023/12/14 01:43:10;;;;;;;30.07;18.90;;;9.90;99.90;;;;;;5073070;28;20436;-64
2023/12/14 01:45:37;;;;;;;38.33;21.10;;;9.90;99.90;;;;;;5076382;28;20444;-64
2023/12/14 01:48:05;;;;;;;32.43;18.90;;;9.90;99.90;;;;;;5076194;28;20444;-63
2023/12/14 01:50:32;;;;;;;28.87;16.87;;;9.90;99.90;;;;;;5076261;28;20448;-63
2023/12/14 01:52:59;;;;;;;34.13;18.93;;;10.00;99.90;;;;;;5075998;28;20867;-63
2023/12/14 01:55:26;;;;;;;26.50;16.43;;;10.00;99.90;;;;;;5076119;28;20487;-63
2023/12/14 01:57:53;;;;;;;37.53;19.23;;;9.90;99.90;;;;;;5076479;28;20436;-63
2023/12/14 02:00:25;;;;;;;30.77;18.20;;;9.90;99.90;;;;;;5076000;28;20535;-64
2023/12/14 02:02:52;;;;;;;38.13;18.17;;;9.80;99.90;;;;;;5076108;28;20448;-64
2023/12/14 02:05:21;;;;;;;24.83;15.10;;;9.80;99.90;;;;;;5075737;28;20919;-63
2023/12/14 02:07:47;;;;;;;27.97;15.50;;;9.80;99.90;;;;;;5075951;28;20453;-63
2023/12/14 02:10:14;;;;;;;26.70;16.37;;;9.70;99.90;;;;;;5076010;28;20826;-63
2023/12/14 02:12:41;;;;;;;26.40;13.97;;;9.70;99.90;;;;;;5075979;28;20496;-63
2023/12/14 02:15:08;;;;;;;30.37;19.03;;;9.70;99.90;;;;;;5075614;28;20472;-63
2023/12/14 02:17:35;;;;;;;30.73;17.40;;;9.60;99.90;;;;;;5075670;28;20540;-64
2023/12/14 02:20:02;;;;;;;29.20;16.20;;;9.60;99.90;;;;;;5075583;28;20468;-63
2023/12/14 02:22:50;;;;;;;28.60;16.03;;;9.60;99.90;;;;;;5075592;28;20453;-63
2023/12/14 02:25:16;;;;;;;29.90;15.23;;;9.60;99.90;;;;;;5075608;28;20491;-63
2023/12/14 02:27:43;;;;;;;28.40;17.50;;;9.60;99.90;;;;;;5075565;28;20444;-63
2023/12/14 02:30:11;;;;;;;31.20;17.60;;;9.50;99.90;;;;;;5075582;28;20441;-63
2023/12/14 02:32:38;;;;;;;27.80;17.40;;;9.50;99.90;;;;;;5075371;28;20457;-63
2023/12/14 02:35:06;;;;;;;32.13;18.83;;;9.50;99.90;;;;;;5075565;28;20480;-63
2023/12/14 02:37:33;;;;;;;24.27;15.37;;;9.50;99.90;;;;;;5075473;28;20440;-65
2023/12/14 02:40:01;;;;;;;32.93;18.77;;;9.50;99.90;;;;;;5075468;28;20543;-64
2023/12/14 02:42:28;;;;;;;29.23;18.60;;;9.50;99.90;;;;;;5075307;28;20465;-64
2023/12/14 02:44:54;;;;;;;28.63;18.00;;;9.50;99.90;;;;;;5075616;28;20459;-64
2023/12/14 02:47:21;;;;;;;31.37;19.50;;;9.40;99.90;;;;;;5075283;28;20437;-64
2023/12/14 02:49:48;;;;;;;33.33;18.80;;;9.40;99.90;;;;;;5075026;28;20448;-64
2023/12/14 02:52:17;;;;;;;33.57;20.00;;;9.40;99.90;;;;;;5074992;28;20465;-64
2023/12/14 02:54:44;;;;;;;31.40;19.67;;;9.40;99.90;;;;;;5074602;28;20853;-63
2023/12/14 02:57:12;;;;;;;35.47;19.40;;;9.30;99.90;;;;;;5074535;28;20444;-64
2023/12/14 02:59:38;;;;;;;33.03;19.10;;;9.30;99.90;;;;;;5067661;28;20458;-63
2023/12/14 03:02:05;;;;;;;33.60;20.73;;;9.30;99.90;;;;;;5054388;28;20963;-63
2023/12/14 03:04:32;;;;;;;34.97;20.60;;;9.30;99.90;;;;;;5054683;28;20453;-63
2023/12/14 03:07:02;;;;;;;31.33;17.10;;;9.20;99.90;;;;;;5054753;28;20445;-64
2023/12/14 03:09:28;;;;;;;34.03;20.80;;;9.20;99.90;;;;;;5054723;28;20441;-64
2023/12/14 03:11:55;;;;;;;35.67;21.80;;;9.10;99.90;;;;;;5054668;28;20846;-64
2023/12/14 03:14:23;;;;;;;37.50;20.83;;;9.10;99.90;;;;;;5054570;28;20449;-64
2023/12/14 03:16:50;;;;;;;41.43;22.67;;;9.10;99.90;;;;;;5054566;28;20446;-63
2023/12/14 03:19:17;;;;;;;34.47;21.30;;;9.10;99.90;;;;;;5054267;28;20488;-63
2023/12/14 03:21:44;;;;;;;39.90;20.63;;;9.10;99.90;;;;;;5054429;28;21002;-63
2023/12/14 03:24:11;;;;;;;35.13;21.90;;;9.10;99.90;;;;;;5054532;28;20537;-63
2023/12/14 03:26:37;;;;;;;39.03;22.80;;;9.10;99.90;;;;;;5054337;28;20449;-62
2023/12/14 03:29:04;;;;;;;37.13;24.00;;;9.10;99.90;;;;;;5054972;28;20453;-62
2023/12/14 03:31:32;;;;;;;34.33;21.70;;;9.10;99.90;;;;;;5054181;28;20457;-62
2023/12/14 03:33:59;;;;;;;33.40;21.50;;;9.10;99.90;;;;;;5054080;28;20495;-63
2023/12/14 03:36:26;;;;;;;36.27;22.90;;;9.00;99.90;;;;;;5053996;28;20485;-63
2023/12/14 03:38:53;;;;;;;31.40;19.77;;;9.00;99.90;;;;;;5054519;28;20442;-63
2023/12/14 03:41:20;;;;;;;33.10;20.60;;;8.90;99.90;;;;;;5053939;28;20468;-63
2023/12/14 03:43:46;;;;;;;27.53;17.97;;;8.90;99.90;;;;;;5054091;28;20464;-63
2023/12/14 03:46:13;;;;;;;30.53;19.07;;;8.90;99.90;;;;;;5054121;28;20850;-63
2023/12/14 03:48:41;;;;;;;25.30;17.17;;;8.90;99.90;;;;;;5053930;28;20445;-64
2023/12/14 03:51:08;;;;;;;28.10;18.53;;;8.90;99.90;;;;;;5053941;28;20465;-64
2023/12/14 03:53:35;;;;;;;30.23;18.93;;;8.90;99.90;;;;;;5054456;28;20791;-64
2023/12/14 03:56:01;;;;;;;25.80;16.57;;;8.90;99.90;;;;;;5053764;28;20484;-63
2023/12/14 03:58:28;;;;;;;26.63;16.27;;;9.00;99.90;;;;;;5053809;28;20820;-63
2023/12/14 04:00:55;;;;;;;27.37;18.70;;;9.00;99.90;;;;;;5053681;28;20492;-64
2023/12/14 04:03:21;;;;;;;25.67;17.33;;;9.10;99.90;;;;;;5053390;28;20454;-64
2023/12/14 04:05:50;;;;;;;31.00;20.53;;;9.10;99.90;;;;;;5053637;28;20448;-64
2023/12/14 04:08:16;;;;;;;31.30;22.60;;;9.10;99.90;;;;;;5053289;28;20843;-64
2023/12/14 04:10:43;;;;;;;31.67;21.47;;;9.00;99.90;;;;;;5053232;28;20487;-64
2023/12/14 04:13:10;;;;;;;32.10;21.50;;;9.00;99.90;;;;;;5053451;28;20453;-64
2023/12/14 04:15:36;;;;;;;38.63;24.70;;;9.00;99.90;;;;;;5053413;28;20488;-64
2023/12/14 04:18:03;;;;;;;37.93;22.70;;;9.00;99.90;;;;;;5053475;28;20859;-65
2023/12/14 04:20:30;;;;;;;36.53;21.53;;;9.00;99.90;;;;;;5053424;28;20452;-64
2023/12/14 04:22:58;;;;;;;37.73;23.20;;;8.90;99.90;;;;;;5053138;28;20945;-64
2023/12/14 04:25:24;;;;;;;38.37;22.83;;;8.90;99.90;;;;;;5053495;28;20512;-64
2023/12/14 04:27:51;;;;;;;37.93;23.37;;;8.80;99.90;;;;;;5053615;28;20454;-64
2023/12/14 04:30:18;;;;;;;37.27;22.93;;;8.80;99.90;;;;;;5053720;28;20442;-64
2023/12/14 04:32:46;;;;;;;37.27;23.47;;;8.70;99.90;;;;;;5053440;28;20449;-64
2023/12/14 04:35:13;;;;;;;36.07;23.03;;;8.70;99.90;;;;;;5053483;28;20477;-64
2023/12/14 04:37:39;;;;;;;35.17;21.87;;;8.70;99.90;;;;;;5053585;28;20444;-64
2023/12/14 04:40:09;;;;;;;39.47;23.37;;;8.60;99.90;;;;;;5053739;28;20437;-64
2023/12/14 04:42:36;;;;;;;36.00;23.50;;;8.70;99.90;;;;;;5053276;28;20466;-64
2023/12/14 04:45:03;;;;;;;35.77;21.80;;;8.70;99.90;;;;;;5053370;28;20469;-64
2023/12/14 04:47:30;;;;;;;39.27;21.90;;;8.70;99.90;;;;;;5053210;28;20438;-64
2023/12/14 04:49:56;;;;;;;35.20;21.00;;;8.70;99.90;;;;;;5053333;28;20444;-64
2023/12/14 04:52:23;;;;;;;34.10;20.07;;;8.70;99.90;;;;;;5053152;28;20472;-64
2023/12/14 04:54:50;;;;;;;38.70;22.77;;;8.70;99.90;;;;;;5052693;28;20449;-64
2023/12/14 04:57:18;;;;;;;36.27;20.47;;;8.60;99.90;;;;;;5052824;28;20959;-64
2023/12/14 04:59:45;;;;;;;31.80;19.97;;;8.60;99.90;;;;;;5052910;28;20950;-64
2023/12/14 05:02:11;;;;;;;31.70;19.67;;;8.60;99.90;;;;;;5053209;28;20493;-64
2023/12/14 05:04:38;;;;;;;35.30;20.53;;;8.60;99.90;;;;;;5053027;28;20553;-64
2023/12/14 05:07:05;;;;;;;31.43;18.70;;;8.60;99.90;;;;;;5053026;28;20438;-64
2023/12/14 05:09:32;;;;;;;31.17;18.53;;;8.60;99.90;;;;;;5053013;28;20838;-64
2023/12/14 05:11:59;;;;;;;28.20;18.30;;;8.70;99.90;;;;;;5054134;28;21033;-64
2023/12/14 05:14:29;;;;;;;33.73;20.17;;;8.70;99.90;;;;;;5056033;28;20475;-64
2023/12/14 05:16:56;;;;;;;32.23;20.00;;;8.70;99.90;;;;;;5056425;28;20500;-64
2023/12/14 05:19:22;;;;;;;33.23;19.83;;;8.70;99.90;;;;;;5056007;28;20469;-64
2023/12/14 05:21:49;;;;;;;34.20;20.97;;;8.70;99.90;;;;;;5057044;28;20465;-65
2023/12/14 05:24:16;;;;;;;27.57;17.70;;;8.70;99.90;;;;;;5056718;28;20954;-64
2023/12/14 05:26:42;;;;;;;36.10;21.87;;;8.70;99.90;;;;;;5056880;28;20814;-63
2023/12/14 05:29:09;;;;;;;35.37;21.20;;;8.70;99.90;;;;;;5056846;28;20445;-63
2023/12/14 05:31:37;;;;;;;35.90;21.07;;;8.70;99.90;;;;;;5057019;28;20470;-64
2023/12/14 05:34:04;;;;;;;34.93;20.63;;;8.70;99.90;;;;;;5056940;28;20878;-64
2023/12/14 05:36:31;;;;;;;33.93;19.20;;;8.70;99.90;;;;;;5056962;28;20504;-64
2023/12/14 05:38:58;;;;;;;34.50;19.60;;;8.70;99.90;;;;;;5056939;28;20477;-64
2023/12/14 05:41:24;;;;;;;32.83;19.87;;;8.70;99.90;;;;;;5056354;28;20500;-64
2023/12/14 05:43:51;;;;;;;33.53;19.47;;;8.60;99.90;;;;;;5056652;28;20789;-64
2023/12/14 05:46:22;;;;;;;32.57;20.40;;;8.70;99.90;;;;;;5056729;28;20441;-64
2023/12/14 05:48:50;;;;;;;36.50;20.80;;;8.60;99.90;;;;;;5056858;28;20449;-64
2023/12/14 05:51:27;;;;;;;34.47;21.50;;;8.60;99.90;;;;;;5056018;28;20461;-64
2023/12/14 05:53:54;;;;;;;34.37;19.37;;;8.60;99.90;;;;;;5055761;28;20804;-64
2023/12/14 05:56:21;;;;;;;35.30;20.87;;;8.70;99.90;;;;;;5056202;28;20504;-64
2023/12/14 05:58:48;;;;;;;34.17;20.83;;;8.70;99.90;;;;;;5055799;28;20452;-63
2023/12/14 06:01:17;;;;;;;32.53;19.67;;;8.70;99.90;;;;;;5055924;28;20469;-64
2023/12/14 06:03:43;;;;;;;41.00;21.60;;;8.80;99.90;;;;;;5055725;28;20457;-64
2023/12/14 06:06:13;;;;;;;34.20;20.00;;;8.80;99.90;;;;;;5055610;28;20434;-64
2023/12/14 06:08:39;;;;;;;32.87;19.70;;;8.80;99.90;;;;;;5055920;28;20442;-65
2023/12/14 06:11:06;;;;;;;40.47;22.87;;;8.70;99.90;;;;;;5055713;28;20461;-65
2023/12/14 06:13:33;;;;;;;43.43;24.97;;;8.70;99.90;;;;;;5055361;28;20797;-64
2023/12/14 06:16:00;;;;;;;36.80;21.20;;;8.70;99.90;;;;;;5055514;28;20495;-64
2023/12/14 06:18:27;;;;;;;36.87;21.47;;;8.60;99.90;;;;;;5055563;28;20861;-64
2023/12/14 06:20:53;;;;;;;35.90;21.00;;;8.60;99.90;;;;;;5055148;28;20469;-64
2023/12/14 06:23:21;;;;;;;31.43;20.10;;;8.60;99.90;;;;;;5055584;28;20441;-64
2023/12/14 06:25:48;;;;;;;34.27;19.03;;;8.60;99.90;;;;;;5055704;28;20444;-64
2023/12/14 06:28:15;;;;;;;34.00;20.40;;;8.60;99.90;;;;;;5055248;28;20939;-64
2023/12/14 06:30:41;;;;;;;33.00;20.63;;;8.60;99.90;;;;;;5054148;28;20473;-64
2023/12/14 06:33:08;;;;;;;33.60;19.13;;;8.60;99.90;;;;;;5054999;28;20452;-64
2023/12/14 06:35:35;;;;;;;31.73;19.07;;;8.60;99.90;;;;;;5055198;28;20446;-64
2023/12/14 06:38:01;;;;;;;30.43;17.40;;;8.60;99.90;;;;;;5055036;28;20821;-64
2023/12/14 06:40:29;;;;;;;32.13;18.53;;;8.60;99.90;;;;;;5055145;28;20442;-64
2023/12/14 06:42:56;;;;;;;32.53;18.00;;;8.50;99.90;;;;;;5054845;28;21023;-64
2023/12/14 06:45:23;;;;;;;37.30;19.67;;;8.50;99.90;;;;;;5054895;28;20958;-64
2023/12/14 06:47:49;;;;;;;33.90;20.23;;;8.40;99.90;;;;;;5054839;28;20963;-64
2023/12/14 06:50:16;;;;;;;33.30;20.63;;;8.40;99.90;;;;;;5055221;28;20449;-64
2023/12/14 06:52:43;;;;;;;35.40;21.50;;;8.40;99.90;;;;;;5055345;28;20465;-64
2023/12/14 06:55:10;;;;;;;33.33;20.17;;;8.40;99.90;;;;;;5054946;28;20454;-64
2023/12/14 06:57:38;;;;;;;35.13;19.70;;;8.40;99.90;;;;;;5054985;28;20898;-64
2023/12/14 07:00:06;;;;;;;35.57;20.27;;;8.40;99.90;;;;;;5054991;28;20449;-64
2023/12/14 07:02:33;;;;;;;36.43;21.13;;;8.40;99.90;;;;;;5054620;28;20465;-64
2023/12/14 07:05:01;;;;;;;38.50;22.00;;;8.40;99.90;;;;;;5055101;28;20430;-64
2023/12/14 07:07:28;;;;;;;34.37;21.10;;;8.40;99.90;;;;;;5054780;28;20811;-64
2023/12/14 07:09:55;;;;;;;30.90;20.40;;;8.40;99.90;;;;;;5054764;28;20438;-64
2023/12/14 07:12:21;;;;;;;39.10;23.67;;;8.30;99.90;;;;;;5054636;28;20469;-64
2023/12/14 07:14:50;;;;;;;33.97;21.80;;;8.30;99.90;;;;;;5054546;28;20442;-64
2023/12/14 07:17:16;;;;;;;31.40;20.03;;;8.20;99.90;;;;;;5054634;28;20481;-64
2023/12/14 07:19:43;;;;;;;30.87;18.77;;;8.20;99.90;;;;;;5054553;28;20442;-64
2023/12/14 07:22:10;;;;;;;31.73;20.23;;;8.20;99.90;;;;;;5054446;28;20477;-64
2023/12/14 07:24:36;;;;;;;32.53;19.60;;;8.20;99.90;;;;;;5054350;28;20820;-64
2023/12/14 07:27:04;;;;;;;28.93;18.20;;;8.20;99.90;;;;;;5054443;28;20815;-64
2023/12/14 07:29:30;;;;;;;30.77;18.57;;;8.10;99.90;;;;;;5054219;28;20958;-64
2023/12/14 07:31:58;;;;;;;28.90;18.47;;;8.10;99.90;;;;;;5054355;28;20465;-64
2023/12/14 07:34:27;;;;;;;29.10;19.00;;;8.20;99.90;;;;;;5054122;28;20476;-63
2023/12/14 07:36:54;;;;;;;27.93;18.53;;;8.10;99.90;;;;;;5053809;28;20990;-63
2023/12/14 07:39:21;;;;;;;26.10;16.77;;;8.10;99.90;;;;;;5054501;28;20449;-63
2023/12/14 07:41:48;;;;;;;30.03;18.90;;;8.10;99.90;;;;;;5053796;28;20505;-64
2023/12/14 07:44:15;;;;;;;27.23;17.30;;;8.10;99.90;;;;;;5054161;28;20966;-64
2023/12/14 07:46:43;;;;;;;28.80;18.37;;;8.10;99.90;;;;;;5054218;28;20441;-64
2023/12/14 07:49:11;;;;;;;26.53;19.17;;;8.10;99.90;;;;;;5055103;28;20543;-64
2023/12/14 07:51:38;;;;;;;26.13;18.00;;;8.10;99.90;;;;;;5054291;28;20881;-64
2023/12/14 07:54:04;;;;;;;27.40;17.70;;;8.10;99.90;;;;;;5054524;28;20442;-64
2023/12/14 07:56:32;;;;;;;30.90;19.13;;;8.10;99.90;;;;;;5053908;28;20484;-64
2023/12/14 07:58:59;;;;;;;32.80;20.40;;;8.20;99.90;;;;;;5053982;28;20528;-64
2023/12/14 08:01:25;;;;;;;30.90;19.83;;;8.10;99.90;;;;;;5054118;28;20469;-64
2023/12/14 08:03:52;;;;;;;34.07;21.57;;;8.10;99.90;;;;;;5053805;28;20449;-64
2023/12/14 08:06:20;;;;;;;31.93;20.50;;;8.10;99.90;;;;;;5054373;28;20437;-64
2023/12/14 08:08:47;;;;;;;32.13;19.57;;;8.10;99.90;;;;;;5054791;28;20441;-64
2023/12/14 08:11:14;;;;;;;33.83;21.30;;;8.10;99.90;;;;;;5053889;28;20991;-64
2023/12/14 08:13:40;;;;;;;31.40;18.90;;;8.10;99.90;;;;;;5053643;28;20446;-64
2023/12/14 08:16:08;;;;;;;36.30;20.30;;;8.10;99.90;;;;;;5053708;28;20480;-64
2023/12/14 08:18:34;;;;;;;27.43;18.20;;;8.10;99.90;;;;;;5062084;28;20468;-64
2023/12/14 08:21:01;;;;;;;24.63;17.50;;;8.10;99.90;;;;;;5073791;28;20468;-64
2023/12/14 08:23:30;;;;;;;34.80;20.70;;;8.10;99.90;;;;;;5073877;28;20440;-64
2023/12/14 08:25:56;;;;;;;31.80;20.40;;;8.10;99.90;;;;;;5073634;28;20448;-64
2023/12/14 08:28:23;;;;;;;30.40;19.70;;;8.10;99.90;;;;;;5073740;28;20812;-64
2023/12/14 08:30:50;;;;;;;31.27;19.20;;;8.10;99.90;;;;;;5073741;28;20986;-64
2023/12/14 08:33:17;;;;;;;31.20;20.90;;;8.10;99.90;;;;;;5074037;28;20437;-64
2023/12/14 08:35:43;;;;;;;26.70;18.20;;;8.10;99.90;;;;;;5073688;28;20452;-64
2023/12/14 08:38:10;;;;;;;28.20;19.77;;;8.10;99.90;;;;;;5073675;28;20487;-64
2023/12/14 08:40:39;;;;;;;31.93;21.03;;;8.10;99.90;;;;;;5073788;28;20440;-64
2023/12/14 08:43:06;;;;;;;30.87;20.07;;;8.10;99.90;;;;;;5073850;28;20448;-64
2023/12/14 08:45:33;;;;;;;26.00;19.20;;;8.00;99.90;;;;;;5073491;28;20448;-64
2023/12/14 08:47:59;;;;;;;29.43;19.10;;;8.00;99.90;;;;;;5073221;28;20450;-64
2023/12/14 08:50:26;;;;;;;26.20;18.33;;;8.00;99.90;;;;;;5073168;28;20445;-64
2023/12/14 08:52:53;;;;;;;27.70;18.40;;;8.00;99.90;;;;;;5073145;28;20480;-64
2023/12/14 08:55:20;;;;;;;31.83;19.43;;;8.00;99.90;;;;;;5077082;28;20444;-64
2023/12/14 08:57:49;;;;;;;28.70;18.10;;;8.10;99.90;;;;;;5077204;28;21058;-64
2023/12/14 09:00:17;;;;;;;27.40;19.40;;;8.10;99.90;;;;;;5076116;28;20460;-64
2023/12/14 09:02:45;;;;;;;25.17;18.40;;;8.10;99.90;;;;;;5077023;28;20484;-64
2023/12/14 09:05:13;;;;;;;23.70;17.33;;;8.00;99.90;;;;;;5077223;28;20624;-64
2023/12/14 09:07:39;;;;;;;27.13;18.40;;;8.00;99.90;;;;;;5077136;28;20444;-64
2023/12/14 09:10:07;;;;;;;24.73;17.10;;;8.00;99.90;;;;;;5077178;28;20448;-64
2023/12/14 09:12:35;;;;;;;25.10;18.40;;;8.00;99.90;;;;;;5077071;28;20523;-64
2023/12/14 09:15:04;;;;;;;28.43;19.43;;;8.00;99.90;;;;;;5077060;28;20494;-64
2023/12/14 09:17:32;;;;;;;28.77;17.43;;;8.10;99.90;;;;;;5076561;28;20480;-64
2023/12/14 09:19:59;;;;;;;25.50;18.30;;;8.00;99.90;;;;;;5077029;28;20441;-64
2023/12/14 09:22:26;;;;;;;27.77;18.53;;;8.00;99.90;;;;;;5077099;28;20460;-64
2023/12/14 09:24:53;;;;;;;28.70;18.60;;;8.00;99.90;;;;;;5076479;28;20444;-64
2023/12/14 09:27:20;;;;;;;23.80;17.17;;;8.00;99.90;;;;;;5076649;28;20448;-64
2023/12/14 09:29:47;;;;;;;25.40;18.10;;;8.10;99.90;;;;;;5076868;28;20451;-64
2023/12/14 09:32:17;;;;;;;25.20;17.97;;;8.10;99.90;;;;;;5076587;28;20471;-64
2023/12/14 09:34:43;;;;;;;25.93;17.43;;;8.10;99.90;;;;;;5076748;28;20451;-64
2023/12/14 09:37:11;;;;;;;27.60;18.70;;;8.20;99.90;;;;;;5076736;28;20484;-64
2023/12/14 09:39:37;;;;;;;26.67;18.93;;;8.20;99.90;;;;;;5076769;28;20491;-64
2023/12/14 09:42:05;;;;;;;25.00;18.33;;;8.30;99.90;;;;;;5076304;28;20472;-63
2023/12/14 09:44:33;;;;;;;22.93;16.10;;;8.30;99.90;;;;;;5076393;28;20854;-63
2023/12/14 09:47:00;;;;;;;24.17;17.33;;;8.30;99.90;;;;;;5076471;28;20440;-63
2023/12/14 09:49:29;;;;;;;22.87;17.03;;;8.30;99.90;;;;;;5076348;28;20459;-63
2023/12/14 09:51:56;;;;;;;23.20;17.50;;;8.40;99.90;;;;;;5076338;28;20464;-63
2023/12/14 09:54:23;;;;;;;20.37;16.50;;;8.40;99.90;;;;;;5076256;28;20463;-63
2023/12/14 09:56:52;;;;;;;22.60;17.30;;;8.40;99.90;;;;;;5075778;28;20479;-63
2023/12/14 09:59:19;;;;;;;21.53;16.57;;;8.40;99.90;;;;;;5076234;28;20536;-63
2023/12/14 10:01:46;;;;;;;26.83;16.93;;;8.50;99.90;;;;;;5076044;28;20469;-63
2023/12/14 10:04:14;;;;;;;25.23;17.30;;;8.50;99.90;;;;;;5075724;28;20547;-63
2023/12/14 10:06:44;;;;;;;25.00;16.67;;;8.50;99.90;;;;;;5076698;28;20942;-63
2023/12/14 10:09:13;;;;;;;23.70;17.83;;;8.60;99.90;;;;;;5079861;28;20441;-63
2023/12/14 10:11:40;;;;;;;22.60;17.77;;;8.60;99.90;;;;;;5080025;28;20978;-63
2023/12/14 10:14:19;;;;;;;24.97;17.03;;;8.60;99.90;;;;;;5078327;28;20448;-63
2023/12/14 10:16:46;;;;;;;20.57;16.40;;;8.60;99.90;;;;;;5075841;28;20517;-63
2023/12/14 10:19:13;;;;;;;25.43;17.80;;;8.50;99.90;;;;;;5076170;28;20514;-63
2023/12/14 10:21:40;;;;;;;24.47;18.30;;;8.50;99.90;;;;;;5075692;28;20819;-64
2023/12/14 10:24:08;;;;;;;21.50;16.47;;;8.40;99.90;;;;;;5075672;28;20448;-64
2023/12/14 10:26:35;;;;;;;22.30;15.83;;;8.40;99.90;;;;;;5075767;28;20448;-64
2023/12/14 10:29:04;;;;;;;23.13;17.77;;;8.40;99.90;;;;;;5075585;28;20440;-64
2023/12/14 10:31:31;;;;;;;25.10;18.17;;;8.50;99.90;;;;;;5075178;28;20970;-63
2023/12/14 10:33:58;;;;;;;22.27;16.77;;;8.50;99.90;;;;;;5075288;28;20441;-63
2023/12/14 10:36:27;;;;;;;22.30;16.60;;;8.50;99.90;;;;;;5075342;28;20444;-64
2023/12/14 10:38:55;;;;;;;23.10;17.90;;;8.50;99.90;;;;;;5075086;28;21019;-64
2023/12/14 10:41:24;;;;;;;23.60;17.87;;;8.60;99.90;;;;;;5075935;28;20491;-63
2023/12/14 10:43:54;;;;;;;24.93;17.83;;;8.60;99.90;;;;;;5075598;28;20451;-64
2023/12/14 10:46:21;;;;;;;22.47;17.67;;;8.60;99.90;;;;;;5075141;28;20828;-64
2023/12/14 10:48:50;;;;;;;22.83;15.63;;;8.60;99.90;;;;;;5075276;28;20439;-64
2023/12/14 10:51:19;;;;;;;22.60;17.20;;;8.50;99.90;;;;;;5075189;28;20460;-63
2023/12/14 10:53:48;;;;;;;22.27;16.93;;;8.50;99.90;;;;;;5075335;28;20441;-63
2023/12/14 10:56:15;;;;;;;22.80;16.87;;;8.50;99.90;;;;;;5075152;28;20441;-64
2023/12/14 10:58:48;;;;;;;22.83;16.67;;;8.50;99.90;;;;;;5075260;28;20575;-63
2023/12/14 11:01:17;;;;;;;24.37;17.97;;;8.40;99.90;;;;;;5075256;28;20471;-63
2023/12/14 11:03:44;;;;;;;26.07;17.60;;;8.50;99.90;;;;;;5074790;28;20499;-63
2023/12/14 11:06:32;;;;;;;20.87;16.23;;;8.50;99.90;;;;;;5075043;28;20468;-63
2023/12/14 11:09:05;;;;;;;20.93;16.17;;;8.40;99.90;;;;;;5070488;28;20463;-64
2023/12/14 11:11:41;;;;;;;19.77;15.70;;;8.50;99.90;;;;;;5074985;28;20494;-64
2023/12/14 11:14:12;;;;;;;19.60;14.23;;;8.50;99.90;;;;;;5074957;28;20428;-64
2023/12/14 11:16:44;;;;;;;19.93;15.23;;;8.50;99.90;;;;;;5074149;28;20428;-63
2023/12/14 11:19:28;;;;;;;19.93;15.40;;;8.40;99.90;;;;;;5075034;28;20417;-63
2023/12/14 11:22:24;;;;;;;19.47;13.77;;;8.50;99.90;;;;;;5074605;28;20456;-64
2023/12/14 11:24:56;;;;;;;19.73;15.27;;;8.50;99.90;;;;;;5074865;28;20475;-63
2023/12/14 11:27:28;;;;;;;19.10;14.27;;;8.50;99.90;;;;;;5074065;28;20444;-63
2023/12/14 11:29:57;;;;;;;20.07;15.20;;;8.60;99.90;;;;;;5074560;28;20417;-63
2023/12/14 11:32:26;;;;;;;21.50;14.83;;;8.50;99.90;;;;;;5074387;28;20461;-63
2023/12/14 11:34:52;;;;;;;19.33;15.00;;;8.60;99.90;;;;;;5074333;28;20444;-63
2023/12/14 11:37:20;;;;;;;20.27;14.30;;;8.60;99.90;;;;;;5074518;28;20487;-63
2023/12/14 11:39:49;;;;;;;20.53;14.83;;;8.60;99.90;;;;;;5074241;28;20535;-63
2023/12/14 11:42:19;;;;;;;21.43;15.87;;;8.60;99.90;;;;;;5074098;28;20468;-63
2023/12/14 11:44:46;;;;;;;19.23;14.30;;;8.60;99.90;;;;;;5074501;28;20487;-63
2023/12/14 11:47:14;;;;;;;21.33;15.93;;;8.60;99.90;;;;;;5073765;28;20962;-63
2023/12/14 11:49:41;;;;;;;20.57;16.30;;;8.70;99.90;;;;;;5074097;28;20449;-63
2023/12/14 11:52:09;;;;;;;19.17;15.30;;;8.70;99.90;;;;;;5073884;28;20464;-63
2023/12/14 11:54:35;;;;;;;20.90;15.83;;;8.80;99.90;;;;;;5073876;28;20480;-63
2023/12/14 11:57:03;;;;;;;23.93;14.77;;;8.80;99.90;;;;;;5073452;28;20443;-63
2023/12/14 11:59:32;;;;;;;19.60;15.83;;;8.90;99.90;;;;;;5067696;28;20466;-63
2023/12/14 12:02:00;;;;;;;17.87;14.60;;;8.90;99.90;;;;;;5053813;28;20466;-63
2023/12/14 12:04:28;;;;;;;17.97;13.10;;;8.90;99.90;;;;;;5053425;28;20515;-64
2023/12/14 12:07:03;;;;;;;17.53;13.10;;;8.90;99.90;;;;;;5053760;28;20469;-64
2023/12/14 12:09:35;;;;;;;16.70;13.07;;;8.90;99.90;;;;;;5053719;28;20452;-64
2023/12/14 12:12:01;;;;;;;17.70;12.17;;;8.90;99.90;;;;;;5053603;28;20501;-64
2023/12/14 12:14:28;;;;;;;16.70;12.47;;;8.90;99.90;;;;;;5053453;28;20454;-64
2023/12/14 12:16:55;;;;;;;15.07;12.23;;;8.90;99.90;;;;;;5053458;28;20453;-64
2023/12/14 12:19:22;;;;;;;14.97;11.63;;;8.90;99.90;;;;;;5053541;28;20552;-64
2023/12/14 12:21:50;;;;;;;14.17;12.17;;;8.90;99.90;;;;;;5053562;28;20473;-64
2023/12/14 12:24:16;;;;;;;16.53;11.90;;;8.90;99.90;;;;;;5053529;28;20445;-64
2023/12/14 12:26:43;;;;;;;14.30;11.70;;;8.90;99.90;;;;;;5053413;28;20446;-64
2023/12/14 12:29:10;;;;;;;17.10;12.47;;;8.90;99.90;;;;;;5053526;28;20438;-64
2023/12/14 12:31:37;;;;;;;15.93;12.47;;;8.90;99.90;;;;;;5053576;28;20466;-64
2023/12/14 12:34:04;;;;;;;15.13;10.63;;;8.80;99.90;;;;;;5053400;28;20948;-64
2023/12/14 12:36:31;;;;;;;16.87;12.00;;;8.80;99.90;;;;;;5053300;28;20453;-64